Time;durP1;ratioP1;P1;durP2;ratioP2;P2;SDS_P1;SDS_P2;PMS_P1;PMS_P2;Temp;Humidity;BMP_temperature;BMP_pressure;BME280_temperature;BME280_humidity;BME280_pressure;Samples;Min_cycle;Max_cycle;Signal;HPM_P1;HPM_P2
2022/11/02 00:00:19;;;;;;;13.10;11.80;;;13.50;99.90;;;;;;5054273;28;20186;-59
2022/11/02 00:02:45;;;;;;;13.30;12.00;;;;;;;;;;5054932;28;20163;-59
2022/11/02 00:05:12;;;;;;;15.17;12.50;;;13.50;99.90;;;;;;5038475;28;20213;-60
2022/11/02 00:10:07;;;;;;;11.83;10.63;;;13.10;99.90;;;;;;5070674;28;21018;-60
2022/11/02 00:12:33;;;;;;;12.33;10.87;;;;;;;;;;5068628;28;20253;-60
2022/11/02 00:14:59;;;;;;;11.80;10.60;;;;;;;;;;5070486;28;20267;-59
2022/11/02 00:17:25;;;;;;;12.33;11.03;;;;;;;;;;5072403;28;20640;-59
2022/11/02 00:19:51;;;;;;;12.20;11.00;;;;;;;;;;5077529;28;20285;-60
2022/11/02 00:22:17;;;;;;;13.20;11.47;;;13.10;99.90;;;;;;5074181;28;20174;-60
2022/11/02 00:24:43;;;;;;;12.17;10.80;;;12.80;99.90;;;;;;5073649;28;20236;-60
2022/11/02 00:27:08;;;;;;;11.83;10.67;;;12.80;99.90;;;;;;5091239;28;20658;-60
2022/11/02 00:29:34;;;;;;;11.87;10.60;;;12.80;99.90;;;;;;5094102;28;20206;-60
2022/11/02 00:32:00;;;;;;;13.23;10.90;;;;;;;;;;5094077;28;20170;-60
2022/11/02 00:34:26;;;;;;;12.77;11.47;;;;;;;;;;5108713;28;20654;-60
2022/11/02 00:36:53;;;;;;;11.90;10.60;;;13.10;99.90;;;;;;5107061;28;20201;-58
2022/11/02 00:39:19;;;;;;;12.40;11.20;;;;;;;;;;5100421;28;20308;-58
2022/11/02 00:41:45;;;;;;;13.27;11.83;;;;;;;;;;5075479;28;20587;-60
2022/11/02 00:44:11;;;;;;;11.53;10.33;;;;;;;;;;5093651;28;20207;-59
2022/11/02 00:46:37;;;;;;;11.90;10.67;;;;;;;;;;5077245;28;20640;-58
2022/11/02 00:49:02;;;;;;;11.47;10.37;;;13.20;99.90;;;;;;5073520;28;20209;-60
2022/11/02 00:51:28;;;;;;;10.43;9.37;;;12.80;99.90;;;;;;5073544;28;20167;-58
2022/11/02 00:53:53;;;;;;;10.80;9.80;;;12.90;99.90;;;;;;5073372;28;20178;-60
2022/11/02 00:56:19;;;;;;;10.30;9.30;;;13.00;99.90;;;;;;5093925;28;20261;-60
2022/11/02 00:58:45;;;;;;;9.43;8.53;;;12.80;99.90;;;;;;5093561;28;20194;-57
2022/11/02 01:01:10;;;;;;;10.07;9.07;;;13.00;99.90;;;;;;5075652;28;20251;-59
2022/11/02 01:03:36;;;;;;;8.53;7.73;;;;;;;;;;5093153;28;20178;-60
2022/11/02 01:06:13;;;;;;;9.50;8.60;;;12.80;99.90;;;;;;5093521;28;20657;-59
2022/11/02 01:08:39;;;;;;;9.47;8.37;;;12.90;99.90;;;;;;5093259;28;20593;-60
2022/11/02 01:11:17;;;;;;;8.97;8.10;;;13.00;99.90;;;;;;5093827;28;20182;-61
2022/11/02 01:13:43;;;;;;;9.90;8.90;;;;;;;;;;5092849;28;20169;-60
2022/11/02 01:16:09;;;;;;;9.53;8.63;;;;;;;;;;5092961;28;20176;-60
2022/11/02 01:18:35;;;;;;;9.70;8.80;;;;;;;;;;5091736;28;20274;-59
2022/11/02 01:21:02;;;;;;;10.73;9.63;;;12.90;99.90;;;;;;5072623;28;20311;-57
2022/11/02 01:23:31;;;;;;;10.63;9.63;;;12.60;99.90;;;;;;5072690;28;20196;-60
2022/11/02 01:25:57;;;;;;;9.90;8.90;;;;;;;;;;5072705;28;20173;-60
2022/11/02 01:28:22;;;;;;;10.10;9.10;;;12.30;99.90;;;;;;5070814;28;20202;-60
2022/11/02 01:30:48;;;;;;;10.13;9.13;;;;;;;;;;5075869;28;20181;-60
2022/11/02 01:33:14;;;;;;;9.70;8.70;;;;;;;;;;5087125;28;20186;-61
2022/11/02 01:35:40;;;;;;;9.30;8.30;;;;;;;;;;5091516;28;20178;-60
2022/11/02 01:38:06;;;;;;;7.27;6.67;;;12.10;99.90;;;;;;5083811;28;20201;-60
2022/11/02 01:40:38;;;;;;;6.77;6.17;;;12.50;99.90;;;;;;5097721;28;20223;-59
2022/11/02 01:43:24;;;;;;;7.67;6.97;;;12.40;99.90;;;;;;5074154;28;20188;-62
2022/11/02 01:45:54;;;;;;;8.13;7.33;;;12.50;99.90;;;;;;5084773;28;20174;-60
2022/11/02 01:48:27;;;;;;;8.60;7.17;;;12.40;99.90;;;;;;5071541;28;20713;-60
2022/11/02 01:50:52;;;;;;;8.40;7.60;;;12.30;99.90;;;;;;5079614;28;20177;-60
2022/11/02 01:53:18;;;;;;;8.40;7.60;;;;;;;;;;5070805;28;20177;-57
2022/11/02 01:55:44;;;;;;;8.57;7.77;;;12.50;99.90;;;;;;5072217;28;20171;-60
2022/11/02 01:58:11;;;;;;;8.80;7.90;;;12.40;99.90;;;;;;5081159;28;20611;-60
2022/11/02 02:00:38;;;;;;;10.80;9.07;;;12.10;99.90;;;;;;5091901;28;20185;-60
2022/11/02 02:03:04;;;;;;;10.13;8.97;;;;;;;;;;5092210;28;20189;-60
2022/11/02 02:05:32;;;;;;;10.90;8.97;;;12.30;99.90;;;;;;5091986;28;20550;-61
2022/11/02 02:07:59;;;;;;;9.60;8.60;;;13.80;99.90;;;;;;5088849;28;20255;-60
2022/11/02 02:10:25;;;;;;;14.57;9.53;;;;;;;;;;5071598;28;20181;-60
2022/11/02 02:12:51;;;;;;;9.37;8.43;;;12.30;99.90;;;;;;5071804;28;20170;-60
2022/11/02 02:15:17;;;;;;;9.03;8.13;;;;;;;;;;5071589;28;20236;-60
2022/11/02 02:17:57;;;;;;;12.17;8.60;;;12.30;99.90;;;;;;5071796;28;20224;-60
2022/11/02 02:20:43;;;;;;;8.90;8.00;;;12.30;99.90;;;;;;5071320;28;20178;-60
2022/11/02 02:23:42;;;;;;;10.00;8.30;;;12.20;99.90;;;;;;5071530;28;20177;-60
2022/11/02 02:26:08;;;;;;;8.40;7.50;;;;;;;;;;5070508;28;20328;-60
2022/11/02 02:29:00;;;;;;;8.90;8.00;;;12.10;99.90;;;;;;5071820;28;20739;-60
2022/11/02 02:31:34;;;;;;;8.40;7.13;;;12.10;99.90;;;;;;4988714;28;20193;-60
2022/11/02 02:34:11;;;;;;;7.67;6.87;;;12.10;99.90;;;;;;4989017;28;20500;-59
2022/11/02 02:37:12;;;;;;;6.80;6.10;;;11.80;99.90;;;;;;4989595;28;20225;-59
2022/11/02 02:39:53;;;;;;;16.20;6.33;;;12.20;99.90;;;;;;4989950;28;20287;-59
2022/11/02 02:42:37;;;;;;;6.40;5.80;;;12.10;99.90;;;;;;4994846;28;20203;-57
2022/11/02 02:45:20;;;;;;;7.23;6.57;;;11.90;99.90;;;;;;4989490;28;20228;-57
2022/11/02 02:48:06;;;;;;;6.87;6.17;;;11.40;99.90;;;;;;4986389;28;20243;-58
2022/11/02 02:50:39;;;;;;;6.17;5.57;;;11.30;99.90;;;;;;4987540;28;20286;-58
2022/11/02 02:53:06;;;;;;;6.33;5.70;;;11.70;99.90;;;;;;4989049;28;20259;-59
2022/11/02 02:55:38;;;;;;;6.53;5.93;;;11.40;99.90;;;;;;5003117;28;20250;-57
2022/11/02 02:58:09;;;;;;;6.37;5.77;;;11.50;99.90;;;;;;4992270;28;20205;-60
2022/11/02 03:00:35;;;;;;;6.80;6.20;;;13.10;99.90;;;;;;4992609;28;20317;-59
2022/11/02 03:03:03;;;;;;;7.10;6.40;;;11.90;99.90;;;;;;4988566;28;20226;-60
2022/11/02 03:05:36;;;;;;;7.07;6.40;;;11.80;99.90;;;;;;4995316;28;20288;-60
2022/11/02 03:08:12;;;;;;;7.40;6.37;;;11.70;99.90;;;;;;5017686;28;20209;-58
2022/11/02 03:10:47;;;;;;;5.53;5.03;;;11.90;99.90;;;;;;5093399;28;20520;-59
2022/11/02 03:13:39;;;;;;;5.83;5.20;;;12.20;99.90;;;;;;5100946;28;20251;-60
2022/11/02 03:16:20;;;;;;;6.20;5.60;;;11.90;99.90;;;;;;5082705;28;20306;-60
2022/11/02 03:19:00;;;;;;;5.80;5.30;;;12.00;99.90;;;;;;5105770;28;20712;-59
2022/11/02 03:21:39;;;;;;;5.97;5.47;;;11.90;99.90;;;;;;5096577;28;20541;-60
2022/11/02 03:24:38;;;;;;;6.50;5.73;;;;;;;;;;5098867;28;20203;-59
2022/11/02 03:27:04;;;;;;;8.67;6.30;;;;;;;;;;4996402;28;20207;-60
2022/11/02 03:29:44;;;;;;;6.90;6.20;;;12.00;99.90;;;;;;4981104;28;20204;-60
2022/11/02 03:32:37;;;;;;;6.70;5.80;;;12.00;99.90;;;;;;4992641;28;20192;-59
2022/11/02 03:35:09;;;;;;;7.13;6.37;;;11.90;99.90;;;;;;4997250;28;20710;-59
2022/11/02 03:37:39;;;;;;;7.73;6.27;;;11.80;99.90;;;;;;4990360;28;20188;-60
2022/11/02 03:40:26;;;;;;;6.27;5.67;;;11.80;99.90;;;;;;4999182;28;20191;-57
2022/11/02 03:42:53;;;;;;;7.70;6.33;;;11.80;99.90;;;;;;4988449;28;20196;-60
2022/11/02 03:45:22;;;;;;;6.37;5.77;;;11.70;99.90;;;;;;4988429;28;20185;-59
2022/11/02 03:47:53;;;;;;;7.00;6.30;;;11.80;99.90;;;;;;4989249;28;20568;-59
2022/11/02 03:50:22;;;;;;;7.30;6.67;;;11.70;99.90;;;;;;4990487;28;20189;-59
2022/11/02 03:52:54;;;;;;;7.27;6.57;;;11.80;99.90;;;;;;4989420;28;20180;-60
2022/11/02 03:55:28;;;;;;;7.50;6.80;;;12.00;99.90;;;;;;5003847;28;20562;-60
2022/11/02 03:57:54;;;;;;;8.20;7.40;;;12.00;99.90;;;;;;5007708;28;20202;-60
2022/11/02 04:00:22;;;;;;;7.70;6.97;;;12.00;99.90;;;;;;4987745;28;20192;-58
2022/11/02 04:02:56;;;;;;;7.67;6.97;;;12.00;99.90;;;;;;5043871;28;20308;-58
2022/11/02 04:05:33;;;;;;;9.63;8.30;;;12.00;99.90;;;;;;5093335;28;20185;-56
2022/11/02 04:16:14;;;;;;;8.60;7.57;;;12.20;99.90;;;;;;5096876;28;20250;-58
2022/11/02 04:21:24;;;;;;;8.07;7.17;;;12.30;99.90;;;;;;5102501;28;20189;-57
2022/11/02 04:26:34;;;;;;;7.20;6.50;;;12.30;99.90;;;;;;5093592;28;20216;-59
2022/11/02 04:29:00;;;;;;;7.47;6.77;;;12.30;99.90;;;;;;5091374;28;20244;-60
2022/11/02 04:31:25;;;;;;;6.90;6.20;;;12.30;99.90;;;;;;5091226;28;20178;-60
2022/11/02 04:33:51;;;;;;;7.13;6.20;;;12.30;99.90;;;;;;5091420;28;20185;-58
2022/11/02 04:36:17;;;;;;;8.00;6.30;;;12.30;99.90;;;;;;5090737;28;20170;-58
2022/11/02 04:38:43;;;;;;;6.80;6.20;;;12.70;99.90;;;;;;5090175;28;20272;-59
2022/11/02 04:43:58;;;;;;;7.87;6.40;;;12.40;99.90;;;;;;5107899;28;20188;-60
2022/11/02 04:46:26;;;;;;;6.97;6.30;;;12.50;99.90;;;;;;5111302;28;20173;-59
2022/11/02 04:48:53;;;;;;;7.33;6.63;;;12.30;99.90;;;;;;5096042;28;20220;-59
2022/11/02 04:51:19;;;;;;;8.10;7.30;;;14.40;99.90;;;;;;5095165;28;20581;-60
2022/11/02 04:53:49;;;;;;;8.07;7.27;;;12.50;99.90;;;;;;5098683;28;20185;-60
2022/11/02 04:56:15;;;;;;;8.73;7.70;;;12.50;99.90;;;;;;5106650;28;20166;-60
2022/11/02 04:58:40;;;;;;;8.00;6.97;;;12.50;99.90;;;;;;5109462;28;20294;-58
2022/11/02 05:01:07;;;;;;;7.67;6.83;;;12.50;99.90;;;;;;5111638;28;20201;-55
2022/11/02 05:03:33;;;;;;;8.30;7.27;;;12.80;99.90;;;;;;5094606;28;20181;-60
2022/11/02 05:05:58;;;;;;;8.27;7.47;;;12.50;99.90;;;;;;5105097;28;20173;-59
2022/11/02 05:08:24;;;;;;;8.33;7.53;;;12.60;99.90;;;;;;5092535;28;20278;-59
2022/11/02 05:10:54;;;;;;;8.60;7.07;;;12.60;99.90;;;;;;5102250;28;20174;-58
2022/11/02 05:13:19;;;;;;;7.23;6.53;;;12.60;99.90;;;;;;5102424;28;20173;-59
2022/11/02 05:15:45;;;;;;;7.50;6.63;;;12.60;99.90;;;;;;5086808;28;20174;-60
2022/11/02 05:18:10;;;;;;;7.60;6.90;;;12.70;99.90;;;;;;5090414;28;20742;-60
2022/11/02 05:20:36;;;;;;;7.47;6.77;;;12.60;99.90;;;;;;5110417;28;20265;-59
2022/11/02 05:23:01;;;;;;;7.47;6.67;;;12.60;99.90;;;;;;5095021;28;20218;-58
2022/11/02 05:25:27;;;;;;;7.20;6.50;;;12.60;99.90;;;;;;5098215;28;20204;-60
2022/11/02 05:27:55;;;;;;;8.23;7.43;;;12.60;99.90;;;;;;5112126;28;20185;-60
2022/11/02 05:30:21;;;;;;;8.27;7.40;;;12.60;99.90;;;;;;5109663;28;20217;-59
2022/11/02 05:32:46;;;;;;;8.20;7.40;;;12.50;99.90;;;;;;5107202;28;20219;-58
2022/11/02 05:35:12;;;;;;;8.03;7.23;;;12.20;99.90;;;;;;5092096;28;20674;-60
2022/11/02 05:37:38;;;;;;;13.13;8.37;;;12.00;99.90;;;;;;5094587;28;20539;-59
2022/11/02 05:40:04;;;;;;;9.57;8.60;;;11.80;99.90;;;;;;5075514;28;20174;-60
2022/11/02 05:42:30;;;;;;;44.27;11.00;;;11.60;99.90;;;;;;5094156;28;20169;-58
2022/11/02 05:44:55;;;;;;;22.67;10.27;;;11.60;99.90;;;;;;5106068;28;20169;-58
2022/11/02 05:47:21;;;;;;;9.60;8.63;;;11.80;99.90;;;;;;5110014;28;20534;-60
2022/11/02 05:49:46;;;;;;;9.80;8.90;;;11.50;99.90;;;;;;5110712;28;20233;-59
2022/11/02 05:52:12;;;;;;;10.80;8.80;;;11.60;99.90;;;;;;5101243;28;20166;-59
2022/11/02 05:54:37;;;;;;;10.20;9.30;;;11.70;99.90;;;;;;5110804;28;20186;-58
2022/11/02 05:57:03;;;;;;;10.43;9.37;;;12.00;99.90;;;;;;5105544;28;20193;-60
2022/11/02 05:59:28;;;;;;;10.47;9.47;;;11.90;99.90;;;;;;5097908;28;20192;-60
2022/11/02 06:01:54;;;;;;;16.30;14.57;;;11.90;99.90;;;;;;5108830;28;20261;-57
2022/11/02 06:04:20;;;;;;;11.33;10.13;;;12.00;99.90;;;;;;5103112;28;20186;-59
2022/11/02 06:06:45;;;;;;;10.83;9.73;;;12.20;99.90;;;;;;5100078;28;20169;-58
2022/11/02 06:09:11;;;;;;;18.43;10.60;;;12.40;99.90;;;;;;5102761;28;20201;-60
2022/11/02 06:11:37;;;;;;;10.30;9.33;;;;;;;;;;5107404;28;20183;-59
2022/11/02 06:14:02;;;;;;;9.93;9.03;;;12.50;99.90;;;;;;5105631;28;20173;-60
2022/11/02 06:16:29;;;;;;;10.17;8.97;;;12.50;99.90;;;;;;5091967;28;20166;-59
2022/11/02 06:18:54;;;;;;;10.90;9.13;;;12.60;99.90;;;;;;5093885;28;20197;-60
2022/11/02 06:21:20;;;;;;;10.17;9.23;;;12.70;99.90;;;;;;5106368;28;20207;-57
2022/11/02 06:23:49;;;;;;;9.97;9.07;;;12.70;99.90;;;;;;5083964;28;20185;-59
2022/11/02 06:26:15;;;;;;;11.10;10.10;;;12.80;99.90;;;;;;5107728;28;20235;-59
2022/11/02 06:28:40;;;;;;;10.73;9.70;;;12.90;99.90;;;;;;5097117;28;20205;-58
2022/11/02 06:31:06;;;;;;;11.60;10.23;;;12.90;99.90;;;;;;5091706;28;20182;-56
2022/11/02 06:33:32;;;;;;;11.33;10.23;;;12.90;99.90;;;;;;5086291;28;20182;-59
2022/11/02 06:35:57;;;;;;;13.47;12.03;;;13.00;99.90;;;;;;5091876;28;20174;-57
2022/11/02 06:38:23;;;;;;;21.10;17.33;;;13.20;99.90;;;;;;5092750;28;20243;-57
2022/11/02 06:40:56;;;;;;;18.97;15.83;;;11.90;99.90;;;;;;5092775;28;20264;-59
2022/11/02 06:43:22;;;;;;;16.40;13.00;;;12.90;99.90;;;;;;5091901;28;20192;-56
2022/11/02 06:45:47;;;;;;;15.73;13.40;;;12.90;99.90;;;;;;5092694;28;20181;-58
2022/11/02 06:48:13;;;;;;;14.70;12.20;;;12.90;99.90;;;;;;5092984;28;20201;-59
2022/11/02 06:50:39;;;;;;;14.23;11.17;;;13.00;99.90;;;;;;5094055;28;20707;-60
2022/11/02 06:53:06;;;;;;;12.30;10.67;;;13.10;99.90;;;;;;5092187;28;20214;-58
2022/11/02 06:55:31;;;;;;;11.83;10.63;;;13.20;99.90;;;;;;5103066;28;20211;-59
2022/11/02 06:57:57;;;;;;;12.97;10.90;;;13.20;99.90;;;;;;5091165;28;20228;-60
2022/11/02 07:00:22;;;;;;;12.93;11.63;;;13.30;99.90;;;;;;5091622;28;20181;-59
2022/11/02 07:03:01;;;;;;;13.67;11.57;;;13.50;99.90;;;;;;5091452;28;20219;-60
2022/11/02 07:05:27;;;;;;;13.23;11.83;;;13.60;99.90;;;;;;5090766;28;20585;-59
2022/11/02 07:07:53;;;;;;;16.23;12.10;;;13.70;99.90;;;;;;5091388;28;20190;-58
2022/11/02 07:10:19;;;;;;;15.07;13.20;;;13.70;99.90;;;;;;5091313;28;20194;-57
2022/11/02 07:12:44;;;;;;;17.83;13.40;;;13.70;99.90;;;;;;5093424;28;20180;-57
2022/11/02 07:15:10;;;;;;;16.87;13.23;;;13.60;99.90;;;;;;5093253;28;20214;-60
2022/11/02 07:17:39;;;;;;;20.60;14.03;;;13.40;99.90;;;;;;5104530;28;20174;-60
2022/11/02 07:20:06;;;;;;;23.50;14.07;;;13.20;99.90;;;;;;5107870;28;20191;-58
2022/11/02 07:22:31;;;;;;;21.47;14.63;;;13.00;99.90;;;;;;5111372;28;20238;-58
2022/11/02 07:24:57;;;;;;;23.07;14.63;;;12.90;99.90;;;;;;5094972;28;20183;-61
2022/11/02 07:27:22;;;;;;;22.43;14.20;;;12.80;99.90;;;;;;5091578;28;20181;-61
2022/11/02 07:29:48;;;;;;;22.80;14.90;;;12.90;99.90;;;;;;5094461;28;20205;-61
2022/11/02 07:32:14;;;;;;;19.40;14.07;;;12.70;99.90;;;;;;5077707;28;20294;-61
2022/11/02 07:34:40;;;;;;;18.23;13.43;;;12.60;99.90;;;;;;5070256;28;20182;-61
2022/11/02 07:37:05;;;;;;;16.37;13.30;;;12.50;99.90;;;;;;5070742;28;20277;-61
2022/11/02 07:39:31;;;;;;;17.87;13.63;;;12.50;99.90;;;;;;5070659;28;20206;-60
2022/11/02 07:41:57;;;;;;;16.10;13.43;;;12.50;99.90;;;;;;5070195;28;20178;-61
2022/11/02 07:44:22;;;;;;;17.27;12.67;;;12.50;99.90;;;;;;5069353;28;20671;-61
2022/11/02 07:46:48;;;;;;;18.00;13.57;;;12.40;99.90;;;;;;5069184;28;20659;-61
2022/11/02 07:49:13;;;;;;;16.43;13.23;;;12.40;99.90;;;;;;5069270;28;20202;-59
2022/11/02 07:51:39;;;;;;;19.10;13.50;;;12.30;99.90;;;;;;5070316;28;20614;-61
2022/11/02 07:54:04;;;;;;;18.80;13.73;;;12.30;99.90;;;;;;5070166;28;20181;-61
2022/11/02 07:56:30;;;;;;;16.23;13.23;;;12.50;99.90;;;;;;5069463;28;20201;-61
2022/11/02 07:58:55;;;;;;;17.87;13.37;;;12.30;99.90;;;;;;5070306;28;20652;-61
2022/11/02 08:01:21;;;;;;;19.17;14.70;;;12.30;99.90;;;;;;5069726;28;20554;-59
2022/11/02 08:03:48;;;;;;;19.10;15.00;;;12.60;99.90;;;;;;5070091;28;20175;-61
2022/11/02 08:06:14;;;;;;;17.37;13.30;;;12.60;99.90;;;;;;5069556;28;20655;-61
2022/11/02 08:08:39;;;;;;;19.67;14.27;;;12.50;99.90;;;;;;5070155;28;20210;-62
2022/11/02 08:11:07;;;;;;;18.17;14.30;;;12.50;99.90;;;;;;5070118;28;20503;-61
2022/11/02 08:13:34;;;;;;;17.17;13.93;;;12.50;99.90;;;;;;5069767;28;20546;-61
2022/11/02 08:16:00;;;;;;;17.53;13.73;;;12.30;99.90;;;;;;5069608;28;20220;-61
2022/11/02 08:18:27;;;;;;;16.87;14.77;;;12.30;99.90;;;;;;5074216;28;20237;-61
2022/11/02 08:20:55;;;;;;;16.90;13.80;;;12.40;99.90;;;;;;5073622;28;20228;-61
2022/11/02 08:23:21;;;;;;;18.13;13.80;;;12.80;99.90;;;;;;5073382;28;20180;-61
2022/11/02 08:25:48;;;;;;;17.70;13.63;;;13.00;99.90;;;;;;5073677;28;20175;-61
2022/11/02 08:28:16;;;;;;;16.63;13.60;;;13.40;99.90;;;;;;5072887;28;20662;-61
2022/11/02 08:30:42;;;;;;;16.93;13.17;;;13.60;99.90;;;;;;5073261;28;20168;-61
2022/11/02 08:33:12;;;;;;;15.17;13.47;;;13.70;99.90;;;;;;5072762;28;20180;-61
2022/11/02 08:35:38;;;;;;;16.97;13.40;;;13.80;99.90;;;;;;5073826;28;20307;-62
2022/11/02 08:38:05;;;;;;;14.43;12.77;;;13.80;99.90;;;;;;5074139;28;20673;-61
2022/11/02 08:40:31;;;;;;;15.07;12.40;;;13.70;99.90;;;;;;5073837;28;20168;-60
2022/11/02 08:43:01;;;;;;;14.07;12.40;;;13.80;99.90;;;;;;5074413;28;20175;-61
2022/11/02 08:45:28;;;;;;;16.03;12.97;;;14.10;99.90;;;;;;5073838;28;20205;-62
2022/11/02 08:48:03;;;;;;;14.17;11.50;;;14.00;99.90;;;;;;5073856;28;20199;-62
2022/11/02 08:50:29;;;;;;;16.50;13.17;;;13.90;99.90;;;;;;5073847;28;20185;-62
2022/11/02 08:52:55;;;;;;;17.10;12.83;;;13.80;99.90;;;;;;5073133;28;20172;-62
2022/11/02 08:55:21;;;;;;;14.63;12.93;;;14.10;99.90;;;;;;5073306;28;20204;-62
2022/11/02 08:57:54;;;;;;;15.33;12.10;;;14.20;99.90;;;;;;5073880;28;20532;-60
2022/11/02 09:00:29;;;;;;;15.97;13.33;;;14.30;99.90;;;;;;5074090;28;20692;-61
2022/11/02 09:03:04;;;;;;;15.67;12.87;;;15.10;99.90;;;;;;5073716;28;20180;-61
2022/11/02 09:05:32;;;;;;;15.60;12.43;;;14.40;99.90;;;;;;5073697;28;20173;-61
2022/11/02 09:08:01;;;;;;;13.87;10.80;;;14.80;99.90;;;;;;5073467;28;20277;-61
2022/11/02 09:10:28;;;;;;;10.40;9.30;;;15.90;99.90;;;;;;5073570;28;20252;-61
2022/11/02 09:12:54;;;;;;;10.40;9.33;;;17.50;99.90;;;;;;5073627;28;20196;-61
2022/11/02 09:15:20;;;;;;;10.50;9.40;;;18.70;99.90;;;;;;5073285;28;20611;-61
2022/11/02 09:17:47;;;;;;;9.50;8.50;;;19.80;99.90;;;;;;5073336;28;20171;-60
2022/11/02 09:20:14;;;;;;;11.37;8.93;;;19.90;99.90;;;;;;5073453;28;20531;-60
2022/11/02 09:22:40;;;;;;;9.10;8.20;;;19.90;99.90;;;;;;5073447;28;20825;-60
2022/11/02 09:25:06;;;;;;;10.50;9.40;;;19.50;99.90;;;;;;5071867;28;20186;-61
2022/11/02 09:27:34;;;;;;;11.80;9.23;;;18.90;99.90;;;;;;5073014;28;20182;-59
2022/11/02 09:29:59;;;;;;;11.40;8.97;;;18.20;99.90;;;;;;5073405;28;20198;-61
2022/11/02 09:32:25;;;;;;;10.33;9.23;;;18.20;99.90;;;;;;5073184;28;20171;-61
2022/11/02 09:34:51;;;;;;;10.47;9.37;;;17.80;99.90;;;;;;5073140;28;20178;-61
2022/11/02 09:37:17;;;;;;;10.90;9.33;;;17.30;99.90;;;;;;5073266;28;20185;-60
2022/11/02 09:39:42;;;;;;;10.57;9.23;;;17.20;99.90;;;;;;5073335;28;20198;-59
2022/11/02 09:42:28;;;;;;;10.10;8.70;;;17.30;99.90;;;;;;5072954;28;20167;-61
2022/11/02 09:44:59;;;;;;;8.60;7.30;;;18.40;99.90;;;;;;5072648;28;20167;-61
2022/11/02 09:47:27;;;;;;;8.30;7.45;;;20.90;99.90;;;;;;5073016;28;20253;-62
2022/11/02 09:49:54;;;;;;;9.98;7.97;;;22.40;99.90;;;;;;5072770;28;20205;-62
2022/11/02 09:52:30;;;;;;;7.55;6.53;;;22.90;99.90;;;;;;5072876;28;20181;-62
2022/11/02 09:54:57;;;;;;;7.70;6.95;;;20.40;99.90;;;;;;5072515;28;20178;-60
2022/11/02 09:57:31;;;;;;;8.90;8.00;;;20.70;99.90;;;;;;5072774;28;20582;-62
2022/11/02 09:59:57;;;;;;;9.13;8.23;;;19.60;99.90;;;;;;5072709;28;20183;-62
2022/11/02 10:03:00;;;;;;;9.70;8.73;;;19.50;99.90;;;;;;5072676;28;20177;-61
2022/11/02 10:05:30;;;;;;;8.67;7.87;;;18.80;99.90;;;;;;5072252;28;20158;-61
2022/11/02 10:08:05;;;;;;;9.75;7.60;;;18.80;99.90;;;;;;5072458;28;20253;-61
2022/11/02 10:10:53;;;;;;;8.75;7.63;;;19.90;99.90;;;;;;5072469;28;20230;-62
2022/11/02 10:13:47;;;;;;;9.47;8.57;;;20.00;99.90;;;;;;5072285;28;20169;-62
2022/11/02 10:16:21;;;;;;;9.80;8.90;;;19.30;99.90;;;;;;4990739;28;20240;-61
2022/11/02 10:18:49;;;;;;;11.67;8.63;;;18.10;99.90;;;;;;4990612;28;20286;-60
2022/11/02 10:21:31;;;;;;;11.80;9.20;;;17.90;99.90;;;;;;4990631;28;20177;-62
2022/11/02 10:24:00;;;;;;;8.63;7.83;;;18.20;99.90;;;;;;4990363;28;20582;-61
2022/11/02 10:26:28;;;;;;;8.53;7.00;;;18.30;99.90;;;;;;4990427;28;20180;-61
2022/11/02 10:29:17;;;;;;;8.83;7.20;;;18.50;99.90;;;;;;4990208;28;20244;-61
2022/11/02 10:31:43;;;;;;;5.90;5.30;;;19.30;99.90;;;;;;4990465;28;20169;-61
2022/11/02 10:34:22;;;;;;;7.07;4.82;;;20.90;99.90;;;;;;4990140;28;20236;-62
2022/11/02 10:36:53;;;;;;;6.85;4.88;;;23.30;99.90;;;;;;4990291;28;20244;-61
2022/11/02 10:39:32;;;;;;;6.10;4.95;;;24.90;99.90;;;;;;4989424;28;20626;-62
2022/11/02 10:42:16;;;;;;;7.60;5.65;;;25.40;99.90;;;;;;4990141;28;20169;-62
2022/11/02 10:45:00;;;;;;;6.47;5.10;;;25.10;99.80;;;;;;4989933;28;20260;-61
2022/11/02 10:47:32;;;;;;;7.85;5.25;;;24.10;99.90;;;;;;4990106;28;20659;-62
2022/11/02 10:50:12;;;;;;;6.15;4.68;;;25.10;99.90;;;;;;4990066;28;20283;-62
2022/11/02 10:52:41;;;;;;;5.03;4.53;;;25.60;99.10;;;;;;5010681;28;20179;-62
2022/11/02 10:55:25;;;;;;;6.63;5.28;;;26.60;97.00;;;;;;5069849;28;20174;-62
2022/11/02 10:57:53;;;;;;;5.80;4.82;;;27.30;96.20;;;;;;5071434;28;20251;-60
2022/11/02 11:00:26;;;;;;;6.15;4.97;;;28.20;94.10;;;;;;5071554;28;20166;-59
2022/11/02 11:03:11;;;;;;;6.00;5.03;;;28.50;93.60;;;;;;5071482;28;20237;-61
2022/11/02 11:05:58;;;;;;;4.85;4.20;;;28.50;93.30;;;;;;5071481;28;20171;-60
2022/11/02 11:08:41;;;;;;;4.88;4.03;;;28.20;91.90;;;;;;5071177;28;20361;-59
2022/11/02 11:11:23;;;;;;;7.70;3.97;;;28.40;91.50;;;;;;5071382;28;20735;-60
2022/11/02 11:13:54;;;;;;;6.15;4.25;;;28.00;92.30;;;;;;5071087;28;20577;-57
2022/11/02 11:16:49;;;;;;;6.10;4.10;;;27.90;91.70;;;;;;5071196;28;20539;-59
2022/11/02 11:19:30;;;;;;;5.10;3.78;;;28.20;91.50;;;;;;5070624;28;20206;-60
2022/11/02 11:21:55;;;;;;;6.00;4.15;;;29.60;90.50;;;;;;5071168;28;20650;-61
2022/11/02 11:24:30;;;;;;;5.68;4.50;;;30.60;84.70;;;;;;5070913;28;20257;-60
2022/11/02 11:27:14;;;;;;;6.82;4.43;;;29.00;88.60;;;;;;5071397;28;20249;-60
2022/11/02 11:29:56;;;;;;;4.90;3.90;;;28.10;87.90;;;;;;5071035;28;20287;-60
2022/11/02 11:32:27;;;;;;;4.32;3.88;;;27.40;91.00;;;;;;5071016;28;20171;-60
2022/11/02 11:35:03;;;;;;;5.18;3.67;;;27.10;90.40;;;;;;5070746;28;20170;-60
2022/11/02 11:37:30;;;;;;;5.07;3.97;;;26.30;92.30;;;;;;5071189;28;20169;-60
2022/11/02 11:39:59;;;;;;;4.38;3.53;;;26.00;92.60;;;;;;5070888;28;20614;-61
2022/11/02 11:42:28;;;;;;;5.07;3.38;;;26.40;93.40;;;;;;5070897;28;20244;-59
2022/11/02 11:45:16;;;;;;;3.83;3.10;;;26.80;90.90;;;;;;5070669;28;20177;-62
2022/11/02 11:47:42;;;;;;;4.28;3.35;;;26.90;90.80;;;;;;5070717;28;20170;-62
2022/11/02 11:50:15;;;;;;;4.40;3.17;;;26.50;90.50;;;;;;5070989;28;20206;-62
2022/11/02 11:52:41;;;;;;;3.05;2.70;;;26.20;91.00;;;;;;5077506;28;20155;-62
2022/11/02 11:55:26;;;;;;;3.22;2.90;;;26.70;91.00;;;;;;5077278;28;20536;-63
2022/11/02 11:58:04;;;;;;;3.20;2.90;;;26.90;90.20;;;;;;5077452;28;20535;-59
2022/11/02 12:00:30;;;;;;;5.20;3.22;;;27.00;90.60;;;;;;5077271;28;20683;-60
2022/11/02 12:03:04;;;;;;;4.40;3.28;;;27.40;89.10;;;;;;5078931;28;20175;-60
2022/11/02 12:05:37;;;;;;;4.00;3.00;;;27.00;90.60;;;;;;5097453;28;20196;-60
2022/11/02 12:08:24;;;;;;;4.55;3.00;;;27.10;90.60;;;;;;5097371;28;20240;-61
2022/11/02 12:11:00;;;;;;;3.70;3.17;;;27.50;89.90;;;;;;5097583;28;20181;-60
2022/11/02 12:13:59;;;;;;;3.90;3.15;;;27.40;88.80;;;;;;5097258;28;20650;-60
2022/11/02 12:16:51;;;;;;;4.57;3.05;;;27.40;89.10;;;;;;5097593;28;20174;-61
2022/11/02 12:19:22;;;;;;;3.28;2.75;;;26.90;86.70;;;;;;5097690;28;20501;-61
2022/11/02 12:22:22;;;;;;;3.92;3.17;;;25.60;90.30;;;;;;5097452;28;20189;-58
2022/11/02 12:25:16;;;;;;;4.53;2.80;;;24.80;91.10;;;;;;5097278;28;20269;-61
2022/11/02 12:27:50;;;;;;;4.88;3.13;;;23.50;92.60;;;;;;5097298;28;20177;-62
2022/11/02 12:30:19;;;;;;;5.05;3.20;;;22.10;95.00;;;;;;5097378;28;20539;-61
2022/11/02 12:32:54;;;;;;;3.80;3.17;;;21.60;96.20;;;;;;5097441;28;20223;-62
2022/11/02 12:36:01;;;;;;;4.13;3.03;;;21.60;97.80;;;;;;5097140;28;20569;-61
2022/11/02 12:38:57;;;;;;;4.43;2.85;;;21.70;97.40;;;;;;5097404;28;20597;-60
2022/11/02 12:41:37;;;;;;;4.07;2.90;;;21.80;97.00;;;;;;5096898;28;20304;-62
2022/11/02 12:44:19;;;;;;;3.83;2.60;;;22.00;97.30;;;;;;5096636;28;20564;-61
2022/11/02 12:47:35;;;;;;;4.18;2.63;;;21.70;97.90;;;;;;5096904;28;20291;-62
2022/11/02 12:50:12;;;;;;;3.30;2.70;;;21.40;98.20;;;;;;4995281;28;20547;-62
2022/11/02 12:52:52;;;;;;;4.03;2.88;;;20.90;99.20;;;;;;4994627;28;20243;-61
2022/11/02 12:55:22;;;;;;;5.35;2.95;;;20.80;99.50;;;;;;4994847;28;20173;-62
2022/11/02 12:57:49;;;;;;;6.30;3.20;;;20.50;99.50;;;;;;4994883;28;20186;-61
2022/11/02 13:00:17;;;;;;;5.90;3.40;;;19.90;99.90;;;;;;4995017;28;20224;-61
2022/11/02 13:03:30;;;;;;;5.95;3.45;;;19.30;99.90;;;;;;4989479;28;20185;-60
2022/11/02 13:06:05;;;;;;;6.00;3.53;;;19.00;99.90;;;;;;4936973;29;20273;-62
2022/11/02 13:08:44;;;;;;;5.10;3.63;;;18.80;99.90;;;;;;4951796;29;20252;-62
2022/11/02 13:11:16;;;;;;;5.40;3.50;;;18.70;99.90;;;;;;4952556;29;20198;-62
2022/11/02 13:13:46;;;;;;;4.33;3.60;;;18.60;99.90;;;;;;4951500;29;20249;-61
2022/11/02 13:16:14;;;;;;;4.43;3.50;;;18.60;99.90;;;;;;4952989;29;20186;-62
2022/11/02 13:18:52;;;;;;;5.23;3.30;;;18.50;99.90;;;;;;4951844;29;20773;-61
2022/11/02 13:21:32;;;;;;;5.30;3.43;;;18.70;99.90;;;;;;4953197;29;20747;-61
2022/11/02 13:23:59;;;;;;;6.17;3.70;;;18.80;99.90;;;;;;5010896;28;20198;-61
2022/11/02 13:26:36;;;;;;;6.00;3.63;;;18.60;99.90;;;;;;5051118;28;20172;-61